createdAt,value
2019-04-11T00:01:56.310Z,4.95
2019-04-11T00:04:26.201Z,4.90
2019-04-11T00:06:56.121Z,4.84
2019-04-11T00:09:26.920Z,4.81
2019-04-11T00:11:57.928Z,4.76
2019-04-11T00:14:27.603Z,4.71
2019-04-11T00:16:58.737Z,4.71
2019-04-11T00:19:29.401Z,4.68
2019-04-11T00:21:59.441Z,4.65
2019-04-11T00:24:29.273Z,4.66
2019-04-11T00:27:00.369Z,4.69
2019-04-11T00:29:30.275Z,4.73
2019-04-11T00:32:01.122Z,4.74
2019-04-11T00:34:31.112Z,4.71
2019-04-11T00:37:01.000Z,4.68
2019-04-11T00:39:31.862Z,4.63
2019-04-11T00:42:02.050Z,4.59
2019-04-11T00:44:32.769Z,4.55
2019-04-11T00:47:02.389Z,4.51
2019-04-11T00:49:32.587Z,4.53
2019-04-11T00:52:02.665Z,4.52
2019-04-11T00:54:33.160Z,4.51
2019-04-11T00:57:02.873Z,4.53
2019-04-11T00:59:32.514Z,4.48
2019-04-11T01:02:02.243Z,4.46
2019-04-11T01:04:32.733Z,4.47
2019-04-11T01:07:02.758Z,4.38
2019-04-11T01:09:32.673Z,4.37
2019-04-11T01:12:02.597Z,4.36
2019-04-11T01:14:32.196Z,4.28
2019-04-11T01:17:01.764Z,4.24
2019-04-11T01:19:31.347Z,4.19
2019-04-11T01:22:01.269Z,4.16
2019-04-11T01:24:31.523Z,4.13
2019-04-11T01:27:01.570Z,4.07
2019-04-11T01:29:31.407Z,4.02
2019-04-11T01:32:06.484Z,3.99
2019-04-11T01:34:37.128Z,3.98
2019-04-11T01:37:07.225Z,3.94
2019-04-11T01:39:41.242Z,3.95
2019-04-11T01:42:11.183Z,3.99
2019-04-11T01:44:41.001Z,4.00
2019-04-11T01:47:12.957Z,3.99
2019-04-11T01:49:42.684Z,3.94
2019-04-11T01:52:12.667Z,3.93
2019-04-11T01:54:42.275Z,3.86
2019-04-11T01:57:11.858Z,3.81
2019-04-11T01:59:41.758Z,3.79
2019-04-11T02:02:28.899Z,3.74
2019-04-11T02:05:00.769Z,3.71
2019-04-11T02:07:30.985Z,3.70
2019-04-11T02:10:00.714Z,3.65
2019-04-11T02:12:31.024Z,3.61
2019-04-11T02:15:00.818Z,3.61
2019-04-11T02:20:02.776Z,3.53
2019-04-11T02:22:49.215Z,3.47
2019-04-11T02:25:38.704Z,3.45
2019-04-11T02:28:10.626Z,3.42
2019-04-11T02:30:43.674Z,3.39
2019-04-11T02:33:15.327Z,3.40
2019-04-11T02:35:47.081Z,3.38
2019-04-11T02:38:16.583Z,3.33
2019-04-11T02:40:47.977Z,3.27
2019-04-11T02:43:18.051Z,3.23
2019-04-11T02:46:00.081Z,3.28
2019-04-11T02:48:20.655Z,3.24
2019-04-11T02:50:51.164Z,3.21
2019-04-11T02:53:22.085Z,3.14
2019-04-11T02:55:54.115Z,3.11
2019-04-11T02:58:25.541Z,3.08
2019-04-11T03:00:58.892Z,3.09
2019-04-11T03:03:27.477Z,3.08
2019-04-11T03:05:58.123Z,3.03
2019-04-11T03:08:31.788Z,3.00
2019-04-11T03:11:01.798Z,2.95
2019-04-11T03:13:33.441Z,2.92
2019-04-11T03:16:19.009Z,2.94
2019-04-11T03:18:53.197Z,2.89
2019-04-11T03:21:13.726Z,2.83
2019-04-11T03:23:39.744Z,2.86
2019-04-11T03:26:12.365Z,2.82
2019-04-11T03:28:46.262Z,2.76
2019-04-11T03:31:59.134Z,2.71
2019-04-11T03:39:12.010Z,2.59
2019-04-11T03:41:32.523Z,2.59
2019-04-11T03:44:00.392Z,2.58
2019-04-11T03:46:40.412Z,2.57
2019-04-11T03:49:03.903Z,2.55
2019-04-11T03:51:27.677Z,2.53
2019-04-11T03:53:59.167Z,2.53
2019-04-11T03:56:30.425Z,2.51
2019-04-11T03:59:01.416Z,2.48
2019-04-11T04:01:32.038Z,2.47
2019-04-11T04:04:02.800Z,2.42
2019-04-11T04:06:33.575Z,2.36
2019-04-11T04:09:04.255Z,2.37
2019-04-11T04:11:35.381Z,2.37
2019-04-11T04:14:08.142Z,2.31
2019-04-11T04:16:47.847Z,2.34
2019-04-11T04:19:25.118Z,2.31
2019-04-11T04:21:57.583Z,2.30
2019-04-11T04:24:34.169Z,2.25
2019-04-11T04:27:02.247Z,2.23
2019-04-11T04:29:36.338Z,2.24
2019-04-11T04:32:06.033Z,2.26
2019-04-11T04:34:36.759Z,2.29
2019-04-11T04:37:07.835Z,2.27
2019-04-11T04:39:39.760Z,2.22
2019-04-11T04:42:21.210Z,2.23
2019-04-11T04:44:42.867Z,2.24
2019-04-11T04:47:21.118Z,2.22
2019-04-11T04:49:45.876Z,2.17
2019-04-11T04:52:16.416Z,2.16
2019-04-11T04:54:46.533Z,2.16
2019-04-11T04:57:18.266Z,2.14
2019-04-11T04:59:48.979Z,2.12
2019-04-11T05:02:20.514Z,2.14
2019-04-11T05:04:49.818Z,2.16
2019-04-11T05:07:19.551Z,2.15
2019-04-11T05:09:50.373Z,2.14
2019-04-11T05:12:20.626Z,2.14
2019-04-11T05:14:51.781Z,2.11
2019-04-11T05:17:23.100Z,2.09
2019-04-11T05:19:52.895Z,2.09
2019-04-11T05:22:22.564Z,2.09
2019-04-11T05:24:52.413Z,2.14
2019-04-11T05:27:22.943Z,2.15
2019-04-11T05:29:53.558Z,2.15
2019-04-11T05:32:23.963Z,2.10
2019-04-11T05:34:54.427Z,2.20
2019-04-11T05:37:24.030Z,2.21
2019-04-11T05:39:53.895Z,2.20
2019-04-11T05:42:26.710Z,2.27
2019-04-11T05:44:54.884Z,2.32
2019-04-11T05:47:25.593Z,2.35
2019-04-11T05:49:59.095Z,2.35
2019-04-11T05:52:31.919Z,2.32
2019-04-11T05:55:02.820Z,2.33
2019-04-11T05:57:35.816Z,2.39
2019-04-11T06:00:08.168Z,2.40
2019-04-11T06:02:39.554Z,2.40
2019-04-11T06:05:23.826Z,2.43
2019-04-11T06:07:57.594Z,2.49
2019-04-11T06:10:28.345Z,2.56
2019-04-11T06:13:12.552Z,2.64
2019-04-11T06:15:47.232Z,2.72
2019-04-11T06:18:32.493Z,2.87
2019-04-11T06:21:02.561Z,3.04
2019-04-11T06:23:45.575Z,3.17
2019-04-11T06:26:18.745Z,3.27
2019-04-11T06:28:52.863Z,3.34
2019-04-11T06:31:42.256Z,3.42
2019-04-11T06:34:11.944Z,3.50
2019-04-11T06:36:56.910Z,3.57
2019-04-11T06:39:27.401Z,3.68
2019-04-11T06:42:09.271Z,3.71
2019-04-11T06:44:50.609Z,3.73
2019-04-11T06:47:38.472Z,3.75
2019-04-11T06:50:09.093Z,3.79
2019-04-11T06:52:41.679Z,3.86
2019-04-11T06:55:30.752Z,3.90
2019-04-11T06:58:08.040Z,3.92
2019-04-11T07:00:41.014Z,4.05
2019-04-11T07:03:19.607Z,4.10
2019-04-11T07:05:44.844Z,4.08
2019-04-11T07:08:16.160Z,4.10
2019-04-11T07:10:47.371Z,4.15
2019-04-11T07:13:18.681Z,4.27
2019-04-11T07:15:49.253Z,4.27
2019-04-11T07:18:37.724Z,4.21
2019-04-11T07:21:10.513Z,4.28
2019-04-11T07:23:59.660Z,4.36
2019-04-11T07:26:35.241Z,4.35
2019-04-11T07:29:21.554Z,4.60
2019-04-11T07:32:00.794Z,4.77
2019-04-11T07:34:48.338Z,5.02
2019-04-11T07:37:32.619Z,5.16
2019-04-11T07:40:15.564Z,5.33
2019-04-11T07:42:53.317Z,5.62
2019-04-11T07:45:41.684Z,6.03
2019-04-11T07:48:13.516Z,6.16
2019-04-11T07:50:44.399Z,6.51
2019-04-11T07:53:15.599Z,6.58
2019-04-11T07:55:46.600Z,6.70
2019-04-11T07:58:26.817Z,6.89
2019-04-11T08:01:01.637Z,7.33
2019-04-11T08:03:35.944Z,7.50
2019-04-11T08:06:07.568Z,7.38
2019-04-11T08:08:47.433Z,7.43
2019-04-11T08:11:21.263Z,7.47
2019-04-11T08:13:56.039Z,7.58
2019-04-11T08:16:27.325Z,7.95
2019-04-11T08:19:15.358Z,8.13
2019-04-11T08:22:03.097Z,7.90
2019-04-11T08:24:40.653Z,7.73
2019-04-11T08:27:30.179Z,7.99
2019-04-11T08:30:02.688Z,8.45
2019-04-11T08:32:44.148Z,8.73
2019-04-11T08:35:28.362Z,9.03
2019-04-11T08:38:01.008Z,9.07
2019-04-11T08:40:35.750Z,8.99
2019-04-11T08:43:08.196Z,9.19
2019-04-11T08:45:49.124Z,9.44
2019-04-11T08:48:19.306Z,9.55
2019-04-11T08:50:50.578Z,9.75
2019-04-11T08:53:20.659Z,10.13
2019-04-11T08:55:57.172Z,10.39
2019-04-11T08:58:28.900Z,10.37
2019-04-11T09:01:00.738Z,10.11
2019-04-11T09:03:42.019Z,10.09
2019-04-11T09:06:14.723Z,10.23
2019-04-11T09:08:50.970Z,10.28
2019-04-11T09:11:22.705Z,10.39
2019-04-11T09:14:10.175Z,10.20
2019-04-11T09:16:47.901Z,10.17
2019-04-11T09:19:35.336Z,10.05
2019-04-11T09:22:17.760Z,10.03
2019-04-11T09:24:58.933Z,9.96
2019-04-11T09:27:47.017Z,9.87
2019-04-11T09:30:35.036Z,9.86
2019-04-11T09:33:14.953Z,9.86
2019-04-11T09:35:57.570Z,9.99
2019-04-11T09:38:28.901Z,10.29
2019-04-11T09:41:09.155Z,10.43
2019-04-11T09:43:40.427Z,10.28
2019-04-11T09:46:12.526Z,10.50
2019-04-11T09:48:42.244Z,10.96
2019-04-11T09:51:17.825Z,11.11
2019-04-11T09:53:49.203Z,11.18
2019-04-11T09:56:36.755Z,11.19
2019-04-11T09:59:09.016Z,10.97
2019-04-11T10:01:56.137Z,10.95
2019-04-11T10:04:28.266Z,10.79
2019-04-11T10:07:01.896Z,10.81
2019-04-11T10:09:52.633Z,10.93
2019-04-11T10:12:38.289Z,10.93
2019-04-11T10:15:13.418Z,11.26
2019-04-11T10:17:44.919Z,11.72
2019-04-11T10:20:16.260Z,11.77
2019-04-11T10:23:05.255Z,11.80
2019-04-11T10:25:37.229Z,11.83
2019-04-11T10:28:09.224Z,11.44
2019-04-11T10:30:57.874Z,11.36
2019-04-11T10:33:33.119Z,11.38
2019-04-11T10:36:07.591Z,11.53
2019-04-11T10:38:39.054Z,11.46
2019-04-11T10:41:26.387Z,11.01
2019-04-11T10:43:57.159Z,10.69
2019-04-11T10:46:34.102Z,10.56
2019-04-11T10:49:05.423Z,10.58
2019-04-11T10:51:39.773Z,10.51
2019-04-11T10:54:11.423Z,10.23
2019-04-11T10:56:47.560Z,10.16
2019-04-11T10:59:17.566Z,10.33
2019-04-11T11:01:48.569Z,10.53
2019-04-11T11:04:23.450Z,10.67
2019-04-11T11:06:55.888Z,10.82
2019-04-11T11:09:37.230Z,10.82
2019-04-11T11:12:25.419Z,10.61
2019-04-11T11:15:11.962Z,10.51
2019-04-11T11:18:12.650Z,10.61
2019-04-11T11:20:38.549Z,10.73
2019-04-11T11:23:08.077Z,10.37
2019-04-11T11:25:39.247Z,10.21
2019-04-11T11:28:09.557Z,10.26
2019-04-11T11:30:47.389Z,10.32
2019-04-11T11:33:20.250Z,10.41
2019-04-11T11:35:50.045Z,10.62
2019-04-11T11:38:28.148Z,10.86
2019-04-11T11:41:18.474Z,11.03
2019-04-11T11:43:50.016Z,11.11
2019-04-11T11:46:25.688Z,10.97
2019-04-11T11:48:54.409Z,11.08
2019-04-11T11:51:31.171Z,11.05
2019-04-11T11:54:11.614Z,10.78
2019-04-11T11:56:44.358Z,10.72
2019-04-11T11:59:30.165Z,10.69
2019-04-11T12:02:00.840Z,10.66
2019-04-11T12:04:48.589Z,10.56
2019-04-11T12:07:20.968Z,10.53
2019-04-11T12:10:09.091Z,10.53
2019-04-11T12:12:40.302Z,10.46
2019-04-11T12:15:22.496Z,10.43
2019-04-11T12:18:13.043Z,10.38
2019-04-11T12:20:59.067Z,10.36
2019-04-11T12:23:42.820Z,10.11
2019-04-11T12:26:05.321Z,10.21
2019-04-11T12:28:41.552Z,10.21
2019-04-11T12:31:11.698Z,10.16
2019-04-11T12:33:59.751Z,10.21
2019-04-11T12:36:31.191Z,10.32
2019-04-11T12:39:10.231Z,10.30
2019-04-11T12:41:41.435Z,10.30
2019-04-11T12:44:29.459Z,10.16
2019-04-11T12:47:17.150Z,10.21
2019-04-11T12:49:52.793Z,10.27
2019-04-11T12:52:31.496Z,10.13
2019-04-11T12:55:03.227Z,10.10
2019-04-11T12:57:49.720Z,10.16
2019-04-11T13:00:19.279Z,10.19
2019-04-11T13:03:00.583Z,10.08
2019-04-11T13:05:35.124Z,10.07
2019-04-11T13:08:22.695Z,10.17
2019-04-11T13:10:52.279Z,10.23
2019-04-11T13:13:23.479Z,10.28
2019-04-11T13:15:55.255Z,10.18
2019-04-11T13:18:42.484Z,10.14
2019-04-11T13:21:19.305Z,10.20
2019-04-11T13:23:54.241Z,10.17
2019-04-11T13:26:42.100Z,10.20
2019-04-11T13:29:13.682Z,10.26
2019-04-11T13:31:45.686Z,10.30
2019-04-11T13:34:19.637Z,10.30
2019-04-11T13:37:02.575Z,10.30
2019-04-11T13:39:32.695Z,10.32
2019-04-11T13:42:19.561Z,10.32
2019-04-11T13:44:49.190Z,10.32
2019-04-11T13:47:25.367Z,10.22
2019-04-11T13:49:56.666Z,10.15
2019-04-11T13:52:39.620Z,10.13
2019-04-11T13:55:11.478Z,10.21
2019-04-11T13:57:58.746Z,10.28
2019-04-11T14:00:39.424Z,10.24
2019-04-11T14:03:10.680Z,10.21
2019-04-11T14:05:41.878Z,10.26
2019-04-11T14:08:13.100Z,10.25
2019-04-11T14:10:59.750Z,10.13
2019-04-11T14:13:35.363Z,10.20
2019-04-11T14:16:21.702Z,10.29
2019-04-11T14:19:07.037Z,10.44
2019-04-11T14:21:37.273Z,10.43
2019-04-11T14:24:17.144Z,10.46
2019-04-11T14:26:48.540Z,10.32
2019-04-11T14:29:22.175Z,10.30
2019-04-11T14:31:54.545Z,10.39
2019-04-11T14:34:25.884Z,10.45
2019-04-11T14:37:12.995Z,10.40
2019-04-11T14:39:49.929Z,10.41
2019-04-11T14:42:23.803Z,10.44
2019-04-11T14:44:55.226Z,10.38
2019-04-11T14:47:39.002Z,10.31
2019-04-11T14:50:11.216Z,10.35
2019-04-11T14:52:47.211Z,10.38
2019-04-11T14:55:19.006Z,10.39
2019-04-11T14:57:54.423Z,10.54
2019-04-11T15:00:26.055Z,10.51
2019-04-11T15:03:03.114Z,10.34
2019-04-11T15:05:49.600Z,10.36
2019-04-11T15:08:33.107Z,10.42
2019-04-11T15:11:13.878Z,10.46
2019-04-11T15:13:48.013Z,10.53
2019-04-11T15:16:24.611Z,10.59
2019-04-11T15:18:55.851Z,10.50
2019-04-11T15:21:27.046Z,10.37
2019-04-11T15:23:56.815Z,10.32
2019-04-11T15:26:27.997Z,10.21
2019-04-11T15:28:59.261Z,10.15
2019-04-11T15:31:39.857Z,10.17
2019-04-11T15:34:11.153Z,10.10
2019-04-11T15:36:42.358Z,10.04
2019-04-11T15:39:30.158Z,10.07
2019-04-11T15:42:02.390Z,10.03
2019-04-11T15:44:49.335Z,10.11
2019-04-11T15:47:20.718Z,10.24
2019-04-11T15:50:08.135Z,10.36
2019-04-11T15:52:39.754Z,10.49
2019-04-11T15:55:13.660Z,10.53
2019-04-11T15:57:44.103Z,10.56
2019-04-11T16:00:19.957Z,10.50
2019-04-11T16:02:55.028Z,10.35
2019-04-11T16:05:42.475Z,10.17
2019-04-11T16:08:13.723Z,10.05
2019-04-11T16:11:02.952Z,9.87
2019-04-11T16:13:49.775Z,9.84
2019-04-11T16:16:21.024Z,9.78
2019-04-11T16:19:01.814Z,9.78
2019-04-11T16:21:36.824Z,9.80
2019-04-11T16:24:11.167Z,9.78
2019-04-11T16:26:42.373Z,9.66
2019-04-11T16:29:29.541Z,9.51
2019-04-11T16:32:00.829Z,9.44
2019-04-11T16:34:48.566Z,9.36
2019-04-11T16:37:19.063Z,9.32
2019-04-11T16:40:02.476Z,9.23
2019-04-11T16:42:33.659Z,9.24
2019-04-11T16:45:05.311Z,9.24
2019-04-11T16:47:36.562Z,9.13
2019-04-11T16:50:06.824Z,9.10
2019-04-11T16:52:38.518Z,9.07
2019-04-11T16:55:10.034Z,9.00
2019-04-11T16:57:43.899Z,8.89
2019-04-11T17:00:13.617Z,8.78
2019-04-11T17:02:43.180Z,8.82
2019-04-11T17:05:12.917Z,8.86
2019-04-11T17:08:00.057Z,8.82
2019-04-11T17:10:47.482Z,8.75
2019-04-11T17:13:17.373Z,8.73
2019-04-11T17:15:46.924Z,8.62
2019-04-11T17:18:18.863Z,8.63
2019-04-11T17:20:47.780Z,8.56
2019-04-11T17:23:17.823Z,8.55
2019-04-11T17:25:52.468Z,8.43
2019-04-11T17:28:22.766Z,8.37
2019-04-11T17:30:50.080Z,8.35
2019-04-11T17:33:20.028Z,8.40
2019-04-11T17:35:49.674Z,8.28
2019-04-11T17:38:19.251Z,8.27
2019-04-11T17:40:48.883Z,8.21
2019-04-11T17:43:18.410Z,8.20
2019-04-11T17:45:47.954Z,8.23
2019-04-11T17:48:17.618Z,8.23
2019-04-11T17:50:47.180Z,8.20
2019-04-11T17:53:16.730Z,8.15
2019-04-11T17:55:48.058Z,8.15
2019-04-11T17:58:17.863Z,8.10
2019-04-11T18:00:55.103Z,8.04
2019-04-11T18:03:24.924Z,8.00
2019-04-11T18:06:03.703Z,7.92
2019-04-11T18:08:33.302Z,7.92
2019-04-11T18:11:02.890Z,7.90
2019-04-11T18:13:32.712Z,7.84
2019-04-11T18:16:02.331Z,7.81
2019-04-11T18:18:34.863Z,7.84
2019-04-11T18:21:06.982Z,7.67
2019-04-11T18:23:35.938Z,7.72
2019-04-11T18:26:05.976Z,7.70
2019-04-11T18:28:35.681Z,7.66
2019-04-11T18:31:05.289Z,7.54
2019-04-11T18:33:34.917Z,7.62
2019-04-11T18:36:04.638Z,7.52
2019-04-11T18:38:34.261Z,7.55
2019-04-11T18:41:03.813Z,7.55
2019-04-11T18:43:33.416Z,7.50
2019-04-11T18:46:02.942Z,7.46
2019-04-11T18:48:32.502Z,7.48
2019-04-11T18:51:02.075Z,7.40
2019-04-11T18:53:31.637Z,7.37
2019-04-11T18:56:01.729Z,7.34
2019-04-11T18:58:33.692Z,7.35
2019-04-11T19:01:03.426Z,7.34
2019-04-11T19:03:36.303Z,7.29
2019-04-11T19:06:04.602Z,7.29
2019-04-11T19:08:34.313Z,7.24
2019-04-11T19:11:04.239Z,7.14
2019-04-11T19:13:34.115Z,7.06
2019-04-11T19:16:03.642Z,7.04
2019-04-11T19:18:33.213Z,7.06
2019-04-11T19:21:03.854Z,7.07
2019-04-11T19:23:33.669Z,7.03
2019-04-11T19:26:03.291Z,6.95
2019-04-11T19:28:32.914Z,6.98
2019-04-11T19:31:02.543Z,6.97
2019-04-11T19:33:34.294Z,6.95
2019-04-11T19:36:03.711Z,6.93
2019-04-11T19:38:35.003Z,6.94
2019-04-11T19:41:04.639Z,6.89
2019-04-11T19:43:35.300Z,6.85
2019-04-11T19:46:05.243Z,6.85
2019-04-11T19:48:34.932Z,6.80
2019-04-11T19:51:04.485Z,6.72
2019-04-11T19:53:34.139Z,6.72
2019-04-11T19:56:05.915Z,6.68
2019-04-11T19:58:35.555Z,6.66
2019-04-11T20:01:05.236Z,6.65
2019-04-11T20:03:34.900Z,6.59
2019-04-11T20:06:04.475Z,6.52
2019-04-11T20:08:34.380Z,6.48
2019-04-11T20:11:04.143Z,6.40
2019-04-11T20:13:33.718Z,6.36
2019-04-11T20:16:03.342Z,6.37
2019-04-11T20:18:32.946Z,6.36
2019-04-11T20:21:07.319Z,6.33
2019-04-11T20:23:34.193Z,6.35
2019-04-11T20:26:03.783Z,6.28
2019-04-11T20:28:33.387Z,6.18
2019-04-11T20:31:02.959Z,6.12
2019-04-11T20:33:34.659Z,6.06
2019-04-11T20:36:03.763Z,6.06
2019-04-11T20:38:33.310Z,6.06
2019-04-11T20:41:03.126Z,6.05
2019-04-11T20:43:32.726Z,6.02
2019-04-11T20:46:03.156Z,5.94
2019-04-11T20:48:35.154Z,5.92
2019-04-11T20:51:04.012Z,5.86
2019-04-11T20:53:36.711Z,5.83
2019-04-11T20:56:04.910Z,5.80
2019-04-11T20:58:34.467Z,5.75
2019-04-11T21:01:04.753Z,5.73
2019-04-11T21:03:34.310Z,5.71
2019-04-11T21:06:04.879Z,5.65
2019-04-11T21:08:36.720Z,5.68
2019-04-11T21:11:05.820Z,5.67
2019-04-11T21:13:38.168Z,5.65
2019-04-11T21:16:06.629Z,5.67
2019-04-11T21:18:36.664Z,5.65
2019-04-11T21:21:06.704Z,5.62
2019-04-11T21:23:36.513Z,5.61
2019-04-11T21:26:06.248Z,5.55
2019-04-11T21:28:36.045Z,5.50
2019-04-11T21:31:05.700Z,5.52
2019-04-11T21:33:36.311Z,5.56
2019-04-11T21:36:06.294Z,5.59
2019-04-11T21:38:36.193Z,5.59
2019-04-11T21:41:06.673Z,5.59
2019-04-11T21:43:38.061Z,5.61
2019-04-11T21:46:08.380Z,5.59
2019-04-11T21:48:38.171Z,5.57
2019-04-11T21:51:11.379Z,5.55
2019-04-11T21:53:44.404Z,5.48
2019-04-11T21:56:11.931Z,5.43
2019-04-11T21:58:41.876Z,5.38
2019-04-11T22:01:15.240Z,5.37
2019-04-11T22:03:45.768Z,5.37
2019-04-11T22:06:15.692Z,5.39
2019-04-11T22:08:45.733Z,5.40
2019-04-11T22:11:15.545Z,5.32
2019-04-11T22:13:45.560Z,5.32
2019-04-11T22:16:15.574Z,5.30
2019-04-11T22:18:45.570Z,5.26
2019-04-11T22:21:15.529Z,5.27
2019-04-11T22:23:48.942Z,5.22
2019-04-11T22:26:17.773Z,5.22
2019-04-11T22:28:47.574Z,5.15
2019-04-11T22:31:17.373Z,5.17
2019-04-11T22:33:51.169Z,5.23
2019-04-11T22:36:22.498Z,5.20
2019-04-11T22:38:52.521Z,5.20
2019-04-11T22:41:22.074Z,5.15
2019-04-11T22:43:51.614Z,5.18
2019-04-11T22:46:21.257Z,5.25
2019-04-11T22:48:50.860Z,5.24
2019-04-11T22:51:20.451Z,5.20
2019-04-11T22:53:59.913Z,5.15
2019-04-11T22:56:21.545Z,5.13
2019-04-11T22:58:51.420Z,5.14
2019-04-11T23:01:20.986Z,5.14
2019-04-11T23:03:54.818Z,5.11
2019-04-11T23:06:24.314Z,5.07
2019-04-11T23:08:54.143Z,5.18
2019-04-11T23:11:23.674Z,5.17
2019-04-11T23:13:53.291Z,5.19
2019-04-11T23:16:23.038Z,5.24
2019-04-11T23:18:52.583Z,5.25
2019-04-11T23:21:22.166Z,5.23
2019-04-11T23:23:51.816Z,5.20
2019-04-11T23:26:21.487Z,5.22
2019-04-11T23:28:51.053Z,5.22
2019-04-11T23:31:21.099Z,5.25
2019-04-11T23:33:52.100Z,5.25
2019-04-11T23:36:22.191Z,5.26
2019-04-11T23:38:52.652Z,5.30
2019-04-11T23:41:23.130Z,5.34
2019-04-11T23:43:52.672Z,5.34
2019-04-11T23:46:22.202Z,5.35
2019-04-11T23:48:54.733Z,5.36
2019-04-11T23:51:26.232Z,5.37
2019-04-11T23:53:54.283Z,5.37
2019-04-11T23:56:23.905Z,5.36
2019-04-11T23:58:53.484Z,5.37
